Time;durP1;ratioP1;P1;durP2;ratioP2;P2;SDS_P1;SDS_P2;PMS_P1;PMS_P2;Temp;Humidity;BMP_temperature;BMP_pressure;BME280_temperature;BME280_humidity;BME280_pressure;Samples;Min_cycle;Max_cycle;Signal;HPM_P1;HPM_P2
2023/09/18 00:00:24;;;;;;;0.10;0.10;;;;;;;17.81;100.00;100460.56;5115805;28;20477;-44
2023/09/18 00:02:49;;;;;;;0.00;0.00;;;;;;;17.82;100.00;100451.88;5116121;28;20486;-44
2023/09/18 00:05:15;;;;;;;0.10;0.10;;;;;;;17.81;100.00;100444.06;5115273;28;20110;-44
2023/09/18 00:07:42;;;;;;;0.10;0.10;;;;;;;17.78;100.00;100445.81;5116186;28;20374;-47
2023/09/18 00:10:08;;;;;;;0.10;0.10;;;;;;;17.82;100.00;100435.34;5116155;28;20031;-49
2023/09/18 00:12:33;;;;;;;0.10;0.10;;;;;;;17.80;100.00;100434.50;5114811;28;20012;-48
2023/09/18 00:14:58;;;;;;;0.00;0.00;;;;;;;17.83;100.00;100434.47;5115806;28;20031;-46
2023/09/18 00:17:24;;;;;;;0.10;0.10;;;;;;;17.80;100.00;100431.91;5115581;28;20110;-46
2023/09/18 00:19:51;;;;;;;0.00;0.00;;;;;;;17.80;100.00;100431.91;5115170;28;20024;-45
2023/09/18 00:22:17;;;;;;;0.00;0.00;;;;;;;17.76;100.00;100431.03;5115547;28;20463;-44
2023/09/18 00:24:42;;;;;;;0.10;0.10;;;;;;;17.78;100.00;100419.72;5115831;28;20016;-45
2023/09/18 00:27:07;;;;;;;0.10;0.10;;;;;;;17.75;100.00;100409.34;5114977;28;20110;-47
2023/09/18 00:29:32;;;;;;;0.00;0.00;;;;;;;17.73;100.00;100399.81;5115861;28;20366;-46
2023/09/18 00:31:58;;;;;;;0.10;0.10;;;;;;;17.71;100.00;100397.19;5115471;28;20019;-46
2023/09/18 00:34:23;;;;;;;0.00;0.00;;;;;;;17.71;100.00;100391.13;5114682;28;20144;-49
2023/09/18 00:36:48;;;;;;;0.10;0.10;;;;;;;17.72;100.00;100387.66;5114408;28;20035;-47
2023/09/18 00:39:15;;;;;;;0.08;0.08;;;;;;;17.74;100.00;100385.88;5114475;28;20034;-46
2023/09/18 00:41:40;;;;;;;0.10;0.10;;;;;;;17.71;100.00;100378.94;5115451;28;20031;-46
2023/09/18 00:44:06;;;;;;;0.10;0.10;;;;;;;17.64;100.00;100374.66;5115723;28;20261;-44
2023/09/18 00:46:32;;;;;;;0.00;0.00;;;;;;;17.66;100.00;100367.69;5114094;28;20055;-46
2023/09/18 00:48:58;;;;;;;0.00;0.00;;;;;;;17.64;100.00;100366.84;5115270;28;20020;-44
2023/09/18 00:51:23;;;;;;;0.00;0.00;;;;;;;17.64;100.00;100358.16;5115014;28;20022;-44
2023/09/18 00:53:49;;;;;;;0.03;0.03;;;;;;;17.61;100.00;100359.03;5114563;28;20023;-47
2023/09/18 00:56:15;;;;;;;0.10;0.10;;;;;;;17.60;100.00;100359.94;5114918;28;20046;-47
2023/09/18 00:58:41;;;;;;;0.03;0.03;;;;;;;17.63;100.00;100356.44;5114868;28;20536;-46
2023/09/18 01:01:08;;;;;;;0.03;0.03;;;;;;;17.61;100.00;100348.63;5114205;28;20059;-46
2023/09/18 01:03:34;;;;;;;0.00;0.00;;;;;;;17.61;100.00;100351.22;5114871;28;20055;-47
2023/09/18 01:05:59;;;;;;;0.10;0.10;;;;;;;17.65;100.00;100342.53;5115116;28;20066;-45
2023/09/18 01:08:25;;;;;;;0.10;0.10;;;;;;;17.60;100.00;100326.91;5114041;28;20019;-44
2023/09/18 01:11:05;;;;;;;0.10;0.10;;;;;;;17.61;100.00;100318.22;5115028;28;20072;-45
2023/09/18 01:13:37;;;;;;;0.10;0.10;;;;;;;17.63;100.00;100305.19;5114626;28;20034;-44
2023/09/18 01:16:10;;;;;;;0.10;0.10;;;;;;;17.62;100.00;100303.44;5113970;28;20483;-47
2023/09/18 01:18:35;;;;;;;0.10;0.10;;;;;;;17.62;100.00;100306.06;5114299;28;20479;-45
2023/09/18 01:21:00;;;;;;;0.10;0.10;;;;;;;17.67;100.00;100306.03;5114690;28;20036;-48
2023/09/18 01:23:26;;;;;;;0.05;0.05;;;;;;;17.66;100.00;100289.50;5113478;28;20107;-45
2023/09/18 01:25:51;;;;;;;0.05;0.05;;;;;;;17.70;100.00;100290.34;5114649;28;20542;-44
2023/09/18 01:28:16;;;;;;;0.10;0.10;;;;;;;17.71;100.00;100290.34;5114194;28;20042;-44
2023/09/18 01:30:42;;;;;;;0.03;0.03;;;;;;;17.70;100.00;100291.22;5113818;28;20036;-45
2023/09/18 01:33:08;;;;;;;0.10;0.10;;;;;;;17.73;100.00;100299.00;5114584;28;20055;-49
2023/09/18 01:35:35;;;;;;;0.10;0.10;;;;;;;17.74;100.00;100290.31;5113498;28;20027;-45
2023/09/18 01:38:01;;;;;;;0.10;0.10;;;;;;;17.76;100.00;100298.97;5114468;28;20266;-45
2023/09/18 01:40:26;;;;;;;0.08;0.08;;;;;;;17.81;100.00;100295.50;5113933;28;20047;-44
2023/09/18 01:42:53;;;;;;;0.00;0.00;;;;;;;17.85;100.00;100299.78;5113536;28;20134;-44
2023/09/18 01:45:18;;;;;;;0.00;0.00;;;;;;;17.88;100.00;100304.97;5113903;27;20105;-44
2023/09/18 01:47:43;;;;;;;0.10;0.10;;;;;;;17.93;100.00;100308.41;5113840;28;20040;-48
2023/09/18 01:50:09;;;;;;;0.00;0.00;;;;;;;17.96;100.00;100305.81;5113175;28;20036;-44
2023/09/18 01:52:34;;;;;;;0.00;0.00;;;;;;;18.00;100.00;100306.63;5113671;28;20065;-46
2023/09/18 01:55:00;;;;;;;0.00;0.00;;;;;;;18.01;100.00;100304.00;5113891;28;20023;-44
2023/09/18 01:57:26;;;;;;;0.10;0.10;;;;;;;18.06;100.00;100304.84;5112781;28;20055;-45
2023/09/18 01:59:51;;;;;;;0.10;0.10;;;;;;;18.08;100.00;100305.66;5114016;28;20042;-45
2023/09/18 02:02:16;;;;;;;0.00;0.00;;;;;;;18.10;100.00;100300.44;5113809;28;20522;-46
2023/09/18 02:04:42;;;;;;;0.05;0.05;;;;;;;18.13;100.00;100296.91;5113425;28;20371;-44
2023/09/18 02:07:07;;;;;;;0.10;0.10;;;;;;;18.15;100.00;100289.97;5113688;28;20352;-45
2023/09/18 02:09:32;;;;;;;0.10;0.10;;;;;;;18.14;100.00;100298.66;5113532;28;20035;-47
2023/09/18 02:11:58;;;;;;;0.10;0.10;;;;;;;18.16;100.00;100291.69;5112935;28;20491;-45
2023/09/18 02:14:23;;;;;;;0.10;0.10;;;;;;;18.19;100.00;100292.53;5113541;28;20035;-45
2023/09/18 02:16:49;;;;;;;0.10;0.10;;;;;;;18.21;100.00;100282.06;5113587;28;20044;-45
2023/09/18 02:19:14;;;;;;;0.10;0.10;;;;;;;18.20;100.00;100281.19;5112515;28;20058;-46
2023/09/18 02:21:40;;;;;;;0.03;0.03;;;;;;;18.21;100.00;100282.06;5113921;28;20042;-44
2023/09/18 02:24:06;;;;;;;0.10;0.10;;;;;;;18.19;100.00;100276.88;5113684;28;20030;-46
2023/09/18 02:26:32;;;;;;;0.10;0.10;;;;;;;18.22;100.00;100276.84;5112298;28;20102;-44
2023/09/18 02:28:59;;;;;;;0.00;0.00;;;;;;;18.23;100.00;100269.88;5113752;28;20028;-44
2023/09/18 02:31:25;;;;;;;0.10;0.10;;;;;;;18.25;100.00;100265.50;5113415;28;20012;-45
2023/09/18 02:33:50;;;;;;;0.00;0.00;;;;;;;18.27;100.00;100251.56;5112703;28;20381;-44
2023/09/18 02:36:15;;;;;;;0.00;0.00;;;;;;;18.22;100.00;100247.28;5113087;28;20028;-45
2023/09/18 02:38:41;;;;;;;0.10;0.10;;;;;;;18.25;100.00;100234.19;5113323;28;20026;-45
2023/09/18 02:41:07;;;;;;;0.10;0.10;;;;;;;18.23;100.00;100220.31;5112470;28;20020;-49
2023/09/18 02:43:32;;;;;;;0.10;0.10;;;;;;;18.23;100.00;100217.69;5112930;28;20416;-44
2023/09/18 02:45:57;;;;;;;0.10;0.10;;;;;;;18.21;100.00;100216.88;5113210;28;20023;-46
2023/09/18 02:48:23;;;;;;;0.10;0.10;;;;;;;18.24;100.00;100214.22;5113010;28;20470;-48
2023/09/18 02:50:48;;;;;;;0.10;0.10;;;;;;;18.23;100.00;100207.25;5113366;28;20027;-47
2023/09/18 02:53:21;;;;;;;0.10;0.10;;;;;;;18.23;100.00;100205.53;5112039;28;20024;-44
2023/09/18 02:55:49;;;;;;;0.10;0.10;;;;;;;18.24;100.00;100203.78;5113227;28;20026;-47
2023/09/18 02:58:16;;;;;;;0.10;0.10;;;;;;;18.20;100.00;100197.72;5112769;28;20047;-46
2023/09/18 03:00:45;;;;;;;0.10;0.10;;;;;;;18.19;100.00;100210.78;5115673;28;20047;-44
2023/09/18 03:03:11;;;;;;;0.00;0.00;;;;;;;18.16;100.00;100205.63;5117464;28;20315;-44
2023/09/18 03:05:36;;;;;;;0.00;0.00;;;;;;;18.16;100.00;100200.41;5116998;28;20431;-45
2023/09/18 03:08:02;;;;;;;0.10;0.10;;;;;;;18.16;100.00;100189.97;5116480;27;20035;-45
2023/09/18 03:10:27;;;;;;;0.10;0.10;;;;;;;18.15;100.00;100196.94;5116686;28;20103;-45
2023/09/18 03:12:53;;;;;;;0.03;0.03;;;;;;;18.08;100.00;100183.09;5117301;28;20020;-46
2023/09/18 03:15:18;;;;;;;0.10;0.10;;;;;;;18.09;100.00;100178.78;5116191;28;20107;-44
2023/09/18 03:17:44;;;;;;;0.10;0.10;;;;;;;18.03;100.00;100184.91;5117113;28;20027;-45
2023/09/18 03:20:10;;;;;;;0.10;0.10;;;;;;;18.01;100.00;100175.38;5116952;28;20032;-44
2023/09/18 03:22:35;;;;;;;0.10;0.10;;;;;;;18.00;100.00;100181.47;5115804;28;20414;-45
2023/09/18 03:25:00;;;;;;;0.05;0.05;;;;;;;17.97;100.00;100173.69;5116784;28;20035;-44
2023/09/18 03:27:28;;;;;;;0.00;0.00;;;;;;;17.96;100.00;100172.84;5116679;28;20032;-45
2023/09/18 03:29:57;;;;;;;0.00;0.00;;;;;;;17.92;100.00;100178.91;5116152;28;20019;-45
2023/09/18 03:32:22;;;;;;;0.10;0.10;;;;;;;17.91;100.00;100191.09;5116554;28;20023;-47
2023/09/18 03:34:51;;;;;;;0.10;0.10;;;;;;;17.91;100.00;100185.88;5116838;28;20042;-44
2023/09/18 03:37:16;;;;;;;0.10;0.10;;;;;;;17.92;100.00;100186.72;5115519;28;20538;-44
2023/09/18 03:39:41;;;;;;;0.10;0.10;;;;;;;17.89;100.00;100174.59;5116447;28;20123;-44
2023/09/18 03:42:07;;;;;;;0.00;0.00;;;;;;;17.92;100.00;100176.31;5115947;28;20035;-48
2023/09/18 03:44:32;;;;;;;0.00;0.00;;;;;;;17.97;100.00;100189.34;5116460;28;20378;-46
2023/09/18 03:46:57;;;;;;;0.08;0.08;;;;;;;18.02;100.00;100196.22;5116608;28;20424;-46
2023/09/18 03:49:22;;;;;;;0.32;0.13;;;;;;;18.12;100.00;100203.94;5115587;28;20103;-44
2023/09/18 03:51:48;;;;;;;0.10;0.10;;;;;;;18.23;100.00;100202.03;5116617;28;20093;-46
2023/09/18 03:54:13;;;;;;;0.10;0.10;;;;;;;18.30;100.00;100195.88;5116175;28;20019;-48
2023/09/18 03:56:38;;;;;;;0.10;0.10;;;;;;;18.37;100.00;100205.38;5115468;28;20135;-46
2023/09/18 03:59:04;;;;;;;0.10;0.10;;;;;;;18.42;100.00;100182.69;5116043;28;20034;-44
2023/09/18 04:01:32;;;;;;;0.10;0.10;;;;;;;18.49;100.00;100178.25;5115984;28;20031;-49
2023/09/18 04:03:58;;;;;;;0.00;0.00;;;;;;;18.52;100.00;100166.91;5115668;28;20023;-44
2023/09/18 04:06:26;;;;;;;0.10;0.10;;;;;;;18.54;100.00;100166.00;5115790;28;20026;-44
2023/09/18 04:08:51;;;;;;;0.10;0.10;;;;;;;18.55;100.00;100195.56;5116043;28;20077;-44
2023/09/18 04:11:19;;;;;;;0.10;0.10;;;;;;;18.54;100.00;100212.09;5114872;28;20015;-45
2023/09/18 04:13:45;;;;;;;0.00;0.00;;;;;;;18.54;100.00;100212.09;5116047;28;20047;-44
2023/09/18 04:16:13;;;;;;;0.00;0.00;;;;;;;18.55;100.00;100208.59;5116052;28;20046;-47
2023/09/18 04:18:38;;;;;;;0.10;0.10;;;;;;;18.56;100.00;100212.94;5114877;28;20467;-45
2023/09/18 04:21:04;;;;;;;0.10;0.10;;;;;;;18.56;100.00;100210.34;5115708;28;20028;-46
2023/09/18 04:23:29;;;;;;;0.10;0.10;;;;;;;18.58;100.00;100203.34;5115411;28;20106;-48
2023/09/18 04:25:55;;;;;;;0.10;0.10;;;;;;;18.59;100.00;100205.06;5114886;28;20371;-45
2023/09/18 04:28:22;;;;;;;0.10;0.10;;;;;;;18.58;100.00;100187.69;5115527;28;20474;-46
2023/09/18 04:30:48;;;;;;;0.10;0.10;;;;;;;18.58;100.00;100192.91;5115760;28;20034;-47
2023/09/18 04:33:14;;;;;;;0.10;0.10;;;;;;;18.54;100.00;100178.16;5114474;28;20030;-44
2023/09/18 04:35:40;;;;;;;0.03;0.03;;;;;;;18.52;100.00;100174.72;5115540;28;20111;-44
2023/09/18 04:38:08;;;;;;;0.10;0.10;;;;;;;18.51;100.00;100175.59;5115691;28;20024;-46
2023/09/18 04:40:34;;;;;;;0.10;0.10;;;;;;;18.50;100.00;100174.75;5114463;28;20027;-45
2023/09/18 04:43:00;;;;;;;0.10;0.10;;;;;;;18.48;100.00;100166.06;5115429;28;20493;-45
2023/09/18 04:45:25;;;;;;;0.10;0.10;;;;;;;18.45;100.00;100160.03;5114284;28;20020;-48
2023/09/18 04:47:52;;;;;;;0.10;0.10;;;;;;;18.42;100.00;100130.50;5115318;28;20445;-45
2023/09/18 04:50:17;;;;;;;0.10;0.10;;;;;;;18.39;100.00;100109.66;5114914;28;20435;-46
2023/09/18 04:52:43;;;;;;;0.00;0.00;;;;;;;18.38;100.00;100113.16;5114328;28;20898;-48
2023/09/18 04:55:08;;;;;;;0.10;0.10;;;;;;;18.34;100.00;100106.25;5115417;28;20028;-45
2023/09/18 04:57:34;;;;;;;0.10;0.10;;;;;;;18.31;100.00;100106.31;5114813;28;20031;-45
2023/09/18 04:59:59;;;;;;;0.00;0.00;;;;;;;18.28;100.00;100108.94;5114588;28;20356;-47
2023/09/18 05:02:25;;;;;;;0.10;0.10;;;;;;;18.25;100.00;100106.41;5114707;28;20110;-46
2023/09/18 05:04:51;;;;;;;0.10;0.10;;;;;;;18.20;100.00;100113.41;5114770;28;20026;-46
2023/09/18 05:07:16;;;;;;;0.08;0.08;;;;;;;18.16;100.00;100112.59;5114100;28;20121;-45
2023/09/18 05:09:42;;;;;;;0.08;0.08;;;;;;;18.17;100.00;100105.66;5115035;28;20047;-46
2023/09/18 05:12:13;;;;;;;0.10;0.10;;;;;;;18.14;100.00;100108.28;5114751;28;20020;-46
2023/09/18 05:14:42;;;;;;;0.00;0.00;;;;;;;18.13;100.00;100102.22;5114161;28;20034;-46
2023/09/18 05:17:11;;;;;;;0.00;0.00;;;;;;;18.13;100.00;100112.66;5114549;28;20462;-45
2023/09/18 05:19:36;;;;;;;0.00;0.00;;;;;;;18.15;100.00;100120.44;5114541;28;20032;-47
2023/09/18 05:22:02;;;;;;;0.10;0.10;;;;;;;18.15;100.00;100116.06;5113437;28;20085;-48
2023/09/18 05:24:29;;;;;;;0.00;0.00;;;;;;;18.13;100.00;100128.28;5114418;28;20020;-48
2023/09/18 05:26:54;;;;;;;0.00;0.00;;;;;;;18.13;100.00;100127.41;5114659;28;20024;-46
2023/09/18 05:29:20;;;;;;;0.03;0.03;;;;;;;18.11;100.00;100130.06;5113471;28;20107;-47
2023/09/18 05:31:45;;;;;;;0.00;0.00;;;;;;;18.12;100.00;100133.53;5114332;28;20028;-47
2023/09/18 05:34:12;;;;;;;0.10;0.10;;;;;;;18.10;100.00;100139.63;5114269;28;20024;-47
2023/09/18 05:36:37;;;;;;;0.00;0.00;;;;;;;18.08;100.00;100130.09;5113556;28;20035;-46
2023/09/18 05:39:09;;;;;;;0.10;0.10;;;;;;;18.09;100.00;100121.41;5114215;28;20016;-44
2023/09/18 05:41:35;;;;;;;0.10;0.10;;;;;;;18.08;100.00;100124.88;5114098;28;20031;-44
2023/09/18 05:44:03;;;;;;;0.10;0.10;;;;;;;18.10;100.00;100123.09;5113350;28;20024;-44
2023/09/18 05:46:29;;;;;;;0.00;0.00;;;;;;;18.10;100.00;100118.78;5113822;28;20027;-44
2023/09/18 05:48:56;;;;;;;0.10;0.10;;;;;;;18.13;100.00;100116.97;5113261;28;20023;-47
2023/09/18 05:51:22;;;;;;;0.10;0.10;;;;;;;18.14;100.00;100129.16;5113960;28;20055;-50
2023/09/18 05:53:50;;;;;;;0.10;0.10;;;;;;;18.16;100.00;100143.03;5113877;28;20047;-45
2023/09/18 05:56:17;;;;;;;0.10;0.10;;;;;;;18.18;100.00;100136.03;5112949;28;20039;-46
2023/09/18 05:58:42;;;;;;;0.00;0.00;;;;;;;18.17;100.00;100145.63;5114133;28;20039;-49
2023/09/18 06:01:07;;;;;;;0.10;0.10;;;;;;;18.18;100.00;100151.69;5113711;28;20020;-45
2023/09/18 06:03:35;;;;;;;0.05;0.05;;;;;;;18.18;100.00;100146.47;5112675;28;20072;-46
2023/09/18 06:06:01;;;;;;;;;;;;;;;18.23;100.00;100148.16;5114410;28;20015;-44
2023/09/18 06:08:26;;;;;;;0.10;0.10;;;;;;;18.15;100.00;100152.59;5113570;28;20002;-48
2023/09/18 06:10:51;;;;;;;0.00;0.00;;;;;;;18.16;100.00;100149.09;5113113;28;20035;-46
2023/09/18 06:13:17;;;;;;;0.10;0.10;;;;;;;18.14;100.00;100166.53;5113380;28;20084;-49
2023/09/18 06:15:42;;;;;;;0.00;0.00;;;;;;;18.13;100.00;100169.13;5113858;27;20057;-45
2023/09/18 06:18:07;;;;;;;0.10;0.10;;;;;;;18.14;100.00;100168.25;5112760;28;20084;-46
2023/09/18 06:20:33;;;;;;;0.10;0.10;;;;;;;18.14;100.00;100165.66;5113389;28;20036;-45
2023/09/18 06:22:58;;;;;;;0.00;0.00;;;;;;;18.12;100.00;100170.03;5113653;28;20027;-48
2023/09/18 06:25:24;;;;;;;0.00;0.00;;;;;;;18.09;100.00;100158.75;5112287;28;20076;-45
2023/09/18 06:27:49;;;;;;;0.10;0.10;;;;;;;18.09;100.00;100166.59;5113348;28;20479;-48
2023/09/18 06:30:15;;;;;;;0.00;0.00;;;;;;;18.08;100.00;100177.88;5113106;28;20043;-49
2023/09/18 06:32:40;;;;;;;0.10;0.10;;;;;;;18.08;100.00;100177.03;5112623;28;20019;-49
2023/09/18 06:35:05;;;;;;;0.10;0.10;;;;;;;18.05;100.00;100177.94;5113573;28;20015;-48
2023/09/18 06:37:31;;;;;;;0.10;0.10;;;;;;;18.05;100.00;100175.34;5113164;28;20404;-46
2023/09/18 06:39:59;;;;;;;0.10;0.10;;;;;;;18.06;100.00;100176.19;5112440;28;20038;-45
2023/09/18 06:42:24;;;;;;;0.00;0.00;;;;;;;18.10;100.00;100191.78;5112984;28;20026;-47
2023/09/18 06:44:49;;;;;;;0.00;0.00;;;;;;;18.13;100.00;100190.00;5113198;28;20027;-47
2023/09/18 06:47:15;;;;;;;0.00;0.00;;;;;;;18.14;100.00;100194.34;5111847;28;20481;-47
2023/09/18 06:49:41;;;;;;;0.08;0.08;;;;;;;18.16;100.00;100195.19;5113449;28;20024;-44
2023/09/18 06:52:07;;;;;;;0.10;0.10;;;;;;;18.19;100.00;100197.75;5112437;28;20065;-45
2023/09/18 06:54:33;;;;;;;0.00;0.00;;;;;;;18.24;100.00;100203.78;5113150;28;20020;-47
2023/09/18 06:56:58;;;;;;;0.00;0.00;;;;;;;18.27;100.00;100203.75;5113174;28;20117;-44
2023/09/18 06:59:23;;;;;;;0.10;0.10;;;;;;;18.29;100.00;100212.41;5111909;28;20114;-44
2023/09/18 07:01:49;;;;;;;0.10;0.10;;;;;;;18.32;100.00;100212.41;5113089;28;20024;-45
2023/09/18 07:04:14;;;;;;;0.00;0.00;;;;;;;18.33;100.00;100208.88;5112975;28;20023;-45
2023/09/18 07:06:40;;;;;;;0.00;0.00;;;;;;;18.35;100.00;100222.78;5112439;28;20035;-46
2023/09/18 07:09:06;;;;;;;0.10;0.10;;;;;;;18.36;100.00;100208.84;5113341;28;20023;-45
2023/09/18 07:11:33;;;;;;;0.10;0.10;;;;;;;18.38;100.00;100216.66;5112798;28;20103;-46
2023/09/18 07:13:59;;;;;;;0.10;0.10;;;;;;;18.36;100.00;100219.28;5112178;28;20118;-44
2023/09/18 07:16:24;;;;;;;0.00;0.00;;;;;;;18.38;100.00;100220.13;5112910;28;20024;-46
2023/09/18 07:18:50;;;;;;;0.05;0.05;;;;;;;18.36;100.00;100208.84;5113030;28;20035;-44
2023/09/18 07:21:15;;;;;;;0.10;0.10;;;;;;;18.39;100.00;100207.94;5112445;28;20051;-45
2023/09/18 07:23:40;;;;;;;0.00;0.00;;;;;;;18.41;100.00;100229.66;5113042;28;20028;-45
2023/09/18 07:26:06;;;;;;;0.10;0.10;;;;;;;18.46;100.00;100224.38;5113052;28;20420;-44
2023/09/18 07:28:31;;;;;;;0.10;0.10;;;;;;;18.43;100.00;100215.69;5111815;28;20051;-46
2023/09/18 07:30:57;;;;;;;0.00;0.00;;;;;;;18.42;100.00;100220.94;5113042;28;20110;-45
2023/09/18 07:33:22;;;;;;;0.00;0.00;;;;;;;18.43;100.00;100231.34;5112503;28;20023;-45
2023/09/18 07:35:49;;;;;;;0.10;0.10;;;;;;;18.46;100.00;100229.59;5112193;28;20016;-44
2023/09/18 07:38:15;;;;;;;0.00;0.00;;;;;;;18.47;100.00;100226.13;5113122;28;20035;-44
2023/09/18 07:40:40;;;;;;;0.10;0.10;;;;;;;18.52;100.00;100232.13;5112761;28;20027;-47
2023/09/18 07:43:05;;;;;;;0.00;0.00;;;;;;;18.49;100.00;100238.25;5111907;28;20027;-45
2023/09/18 07:45:31;;;;;;;0.10;0.10;;;;;;;18.48;100.00;100238.28;5113418;28;20023;-44
2023/09/18 07:47:56;;;;;;;0.05;0.05;;;;;;;18.49;100.00;100226.94;5116562;28;20019;-46
2023/09/18 07:50:24;;;;;;;0.00;0.00;;;;;;;18.50;100.00;100226.06;5115424;28;20107;-47
2023/09/18 07:52:49;;;;;;;0.00;0.00;;;;;;;18.51;100.00;100235.63;5116458;28;20516;-46
2023/09/18 07:55:15;;;;;;;0.10;0.10;;;;;;;18.59;100.00;100237.25;5116003;28;20024;-44
2023/09/18 07:57:40;;;;;;;0.00;0.00;;;;;;;18.61;100.00;100234.63;5115679;28;20075;-44
2023/09/18 08:00:12;;;;;;;0.00;0.00;;;;;;;18.64;100.00;100250.22;5116171;28;20028;-45
2023/09/18 08:02:40;;;;;;;0.00;0.00;;;;;;;18.62;100.00;100236.34;5115538;28;20027;-46
2023/09/18 08:05:05;;;;;;;0.10;0.10;;;;;;;18.66;100.00;100235.41;5116158;28;20069;-45
2023/09/18 08:07:31;;;;;;;0.00;0.00;;;;;;;18.66;100.00;100232.81;5115811;28;20043;-44
2023/09/18 08:09:57;;;;;;;0.10;0.10;;;;;;;18.63;100.00;100240.69;5115273;28;20042;-44
2023/09/18 08:12:23;;;;;;;0.05;0.05;;;;;;;18.66;100.00;100243.25;5115602;28;20085;-47
2023/09/18 08:14:50;;;;;;;0.10;0.10;;;;;;;18.65;100.00;100244.13;5115847;28;20537;-46
2023/09/18 08:17:15;;;;;;;0.10;0.10;;;;;;;18.62;100.00;100233.75;5114973;27;20099;-45
2023/09/18 08:19:41;;;;;;;0.00;0.00;;;;;;;18.58;100.00;100232.06;5115885;28;20413;-47
2023/09/18 08:22:06;;;;;;;0.00;0.00;;;;;;;18.58;100.00;100245.13;5115653;28;20023;-45
2023/09/18 08:24:31;;;;;;;0.10;0.10;;;;;;;18.65;100.00;100245.88;5114762;28;20069;-45
2023/09/18 08:26:57;;;;;;;0.10;0.10;;;;;;;18.81;100.00;100252.63;5115668;28;20026;-45
2023/09/18 08:29:22;;;;;;;0.00;0.00;;;;;;;18.90;100.00;100252.53;5115572;28;20483;-44
2023/09/18 08:31:49;;;;;;;0.10;0.10;;;;;;;18.98;100.00;100255.03;5114705;28;20012;-47
2023/09/18 08:34:14;;;;;;;0.10;0.10;;;;;;;19.05;100.00;100256.66;5115434;28;20034;-44
2023/09/18 08:36:39;;;;;;;0.10;0.10;;;;;;;19.06;100.00;100263.59;5115620;28;20027;-48
2023/09/18 08:39:05;;;;;;;0.00;0.00;;;;;;;18.99;100.00;100269.81;5114624;28;20024;-45
2023/09/18 08:41:32;;;;;;;0.00;0.00;;;;;;;18.94;100.00;100274.25;5115142;28;20432;-48
2023/09/18 08:44:03;;;;;;;0.00;0.00;;;;;;;18.99;100.00;100277.66;5115684;28;20027;-45
2023/09/18 08:46:29;;;;;;;0.10;0.10;;;;;;;18.98;100.00;100277.66;5114381;28;20055;-45
2023/09/18 08:48:56;;;;;;;0.00;0.00;;;;;;;19.00;100.00;100288.94;5115462;28;20019;-45
2023/09/18 08:51:22;;;;;;;0.10;0.10;;;;;;;19.12;100.00;100280.94;5114897;27;20020;-45
2023/09/18 08:53:48;;;;;;;0.00;0.00;;;;;;;19.17;100.00;100280.88;5114501;28;20028;-44
2023/09/18 08:56:14;;;;;;;0.00;0.00;;;;;;;19.23;100.00;100288.63;5114462;27;20019;-46
2023/09/18 08:58:42;;;;;;;0.00;0.00;;;;;;;19.19;100.00;100279.09;5113405;28;20052;-44
2023/09/18 09:01:09;;;;;;;;;;;;;;;19.24;100.00;100278.13;5115578;28;20034;-47
2023/09/18 09:03:45;;;;;;;0.10;0.10;;;;;;;19.42;100.00;100271.75;5114740;28;20382;-46
2023/09/18 09:06:12;;;;;;;0.00;0.00;;;;;;;19.30;100.00;100271.97;5114294;28;20101;-44
2023/09/18 09:08:37;;;;;;;0.10;0.10;;;;;;;19.49;100.00;100275.13;5114801;28;20356;-46
2023/09/18 09:11:03;;;;;;;0.00;0.00;;;;;;;19.61;100.00;100271.44;5114725;28;20471;-44
2023/09/18 09:13:29;;;;;;;0.10;0.10;;;;;;;19.88;100.00;100274.50;5113928;28;20020;-44
2023/09/18 09:15:56;;;;;;;0.10;0.10;;;;;;;20.07;100.00;100280.25;5114718;28;20042;-47
2023/09/18 09:18:27;;;;;;;0.00;0.00;;;;;;;20.20;100.00;100280.88;5114597;28;20024;-45
2023/09/18 09:21:04;;;;;;;0.05;0.05;;;;;;;20.28;100.00;100288.59;5113856;28;20059;-44
2023/09/18 09:23:45;;;;;;;0.05;0.05;;;;;;;20.47;100.00;100295.16;5114219;28;20498;-45
2023/09/18 09:26:16;;;;;;;0.00;0.00;;;;;;;20.61;100.00;100301.91;5114504;28;20489;-44
2023/09/18 09:28:43;;;;;;;0.10;0.10;;;;;;;20.83;100.00;100310.19;5113881;28;20066;-47
2023/09/18 09:31:13;;;;;;;0.00;0.00;;;;;;;20.77;100.00;100307.69;5114547;28;20024;-44
2023/09/18 09:33:53;;;;;;;0.00;0.00;;;;;;;20.72;100.00;100306.03;5114462;28;20023;-44
2023/09/18 09:36:18;;;;;;;0.00;0.00;;;;;;;20.66;100.00;100303.50;5114151;28;20020;-47
2023/09/18 09:38:44;;;;;;;0.00;0.00;;;;;;;20.70;100.00;100314.81;5114261;28;20031;-45
2023/09/18 09:41:13;;;;;;;0.00;0.00;;;;;;;20.73;100.00;100317.38;5113541;28;20027;-45
2023/09/18 09:43:42;;;;;;;0.00;0.00;;;;;;;20.66;100.00;100311.38;5114330;28;20046;-47
2023/09/18 09:46:17;;;;;;;0.00;0.00;;;;;;;20.68;100.00;100320.06;5114175;28;20024;-49
2023/09/18 09:48:59;;;;;;;0.00;0.00;;;;;;;20.61;100.00;100313.22;5113518;27;20132;-46
2023/09/18 09:51:24;;;;;;;0.00;0.00;;;;;;;20.63;100.00;100310.56;5114022;28;20037;-44
2023/09/18 09:53:51;;;;;;;0.00;0.00;;;;;;;20.63;100.00;100306.22;5114008;28;20352;-46
2023/09/18 09:56:21;;;;;;;0.00;0.00;;;;;;;20.57;100.00;100306.31;5113013;28;20031;-45
2023/09/18 09:59:11;;;;;;;0.00;0.00;;;;;;;20.85;100.00;100303.16;5113943;28;20286;-46
2023/09/18 10:01:37;;;;;;;0.00;0.00;;;;;;;21.08;100.00;100307.03;5113955;28;20069;-44
2023/09/18 10:04:09;;;;;;;0.00;0.00;;;;;;;21.15;100.00;100303.34;5113149;28;20043;-44
2023/09/18 10:06:36;;;;;;;0.00;0.00;;;;;;;21.11;100.00;100309.56;5113552;28;20023;-47
2023/09/18 10:09:05;;;;;;;0.00;0.00;;;;;;;21.05;100.00;100321.06;5112852;28;20019;-44
2023/09/18 10:11:32;;;;;;;0.00;0.00;;;;;;;20.91;100.00;100321.34;5113333;28;20371;-44
2023/09/18 10:14:00;;;;;;;0.00;0.00;;;;;;;20.90;100.00;100319.63;5113870;28;20019;-44
2023/09/18 10:16:27;;;;;;;0.00;0.00;;;;;;;21.02;100.00;100336.84;5112631;28;20024;-47
2023/09/18 10:19:11;;;;;;;0.00;0.00;;;;;;;21.18;100.00;100339.97;5113691;28;20020;-47
2023/09/18 10:22:00;;;;;;;0.00;0.00;;;;;;;21.31;100.00;100343.19;5113384;28;20032;-44
2023/09/18 10:24:30;;;;;;;0.00;0.00;;;;;;;21.69;100.00;100337.06;5112727;28;20098;-44
2023/09/18 10:26:58;;;;;;;0.00;0.00;;;;;;;21.47;100.00;100320.09;5113598;28;20020;-46
2023/09/18 10:29:24;;;;;;;0.00;0.00;;;;;;;21.89;100.00;100321.72;5113184;28;20024;-44
2023/09/18 10:31:52;;;;;;;0.00;0.00;;;;;;;22.10;100.00;100336.03;5112709;28;20364;-44
2023/09/18 10:34:18;;;;;;;;;;;;;;;22.49;100.00;100334.13;5113535;28;20149;-45
2023/09/18 10:36:50;;;;;;;0.00;0.00;;;;;;;22.06;96.14;100334.41;5113551;28;20455;-45
2023/09/18 10:39:19;;;;;;;0.00;0.00;;;;;;;21.80;100.00;100333.31;5112437;28;20050;-49
2023/09/18 10:41:51;;;;;;;0.00;0.00;;;;;;;21.55;100.00;100333.91;5113414;28;20028;-45
2023/09/18 10:44:19;;;;;;;0.00;0.00;;;;;;;21.48;100.00;100327.06;5112279;28;20383;-44
2023/09/18 10:46:46;;;;;;;0.00;0.00;;;;;;;21.69;100.00;100321.31;5113220;28;20489;-47
2023/09/18 10:49:12;;;;;;;0.00;0.00;;;;;;;21.70;100.00;100328.31;5113068;28;20494;-46
2023/09/18 10:51:42;;;;;;;0.00;0.00;;;;;;;21.47;100.00;100325.31;5112661;28;20016;-44
2023/09/18 10:54:08;;;;;;;0.00;0.00;;;;;;;21.45;100.00;100321.91;5113541;28;20028;-46
2023/09/18 10:56:34;;;;;;;0.00;0.00;;;;;;;21.30;100.00;100329.19;5112857;28;20019;-44
2023/09/18 10:59:01;;;;;;;0.00;0.00;;;;;;;21.10;100.00;100331.44;5112243;28;20272;-45
2023/09/18 11:01:29;;;;;;;0.00;0.00;;;;;;;20.95;100.00;100323.00;5112697;28;20424;-45
2023/09/18 11:03:59;;;;;;;0.00;0.00;;;;;;;20.77;100.00;100326.03;5113090;28;20398;-46
2023/09/18 11:06:26;;;;;;;0.30;0.00;;;;;;;20.70;100.00;100330.53;5112375;28;20035;-44
2023/09/18 11:09:01;;;;;;;0.05;0.05;;;;;;;20.74;100.00;100326.09;5113123;28;20363;-47
2023/09/18 11:11:29;;;;;;;0.00;0.00;;;;;;;20.83;100.00;100320.66;5112955;28;20100;-45
2023/09/18 11:13:56;;;;;;;0.00;0.00;;;;;;;21.01;100.00;100322.88;5112302;28;20123;-46